Time;durP1;ratioP1;P1;durP2;ratioP2;P2;SDS_P1;SDS_P2;PMS_P1;PMS_P2;Temp;Humidity;BMP_temperature;BMP_pressure;BME280_temperature;BME280_humidity;BME280_pressure;Samples;Min_cycle;Max_cycle;Signal;HPM_P1;HPM_P2
2022/08/23 00:01:51;;;;;;;3.30;2.70;;;21.30;95.80;;;;;;5015348;28;20471;-77
2022/08/23 00:04:30;;;;;;;6.23;2.90;;;21.30;95.80;;;;;;5015428;28;20446;-77
2022/08/23 00:06:59;;;;;;;7.73;2.90;;;21.20;95.90;;;;;;5015416;28;20509;-77
2022/08/23 00:09:27;;;;;;;3.07;2.50;;;21.20;95.80;;;;;;5015727;28;20504;-77
2022/08/23 00:12:03;;;;;;;4.10;3.13;;;21.20;96.00;;;;;;5015157;28;20474;-77
2022/08/23 00:14:32;;;;;;;6.07;2.97;;;21.10;96.00;;;;;;5015344;28;20534;-78
2022/08/23 00:16:59;;;;;;;4.80;3.50;;;21.10;96.20;;;;;;5014695;28;20482;-77
2022/08/23 00:19:27;;;;;;;9.33;3.00;;;21.00;96.20;;;;;;5015550;28;20797;-77
2022/08/23 00:21:55;;;;;;;4.97;2.77;;;21.00;96.20;;;;;;5015099;28;20779;-77
2022/08/23 00:24:24;;;;;;;6.17;3.03;;;21.00;96.30;;;;;;5015127;28;20497;-77
2022/08/23 00:26:54;;;;;;;4.37;2.53;;;21.00;96.30;;;;;;5014646;28;20443;-78
2022/08/23 00:29:22;;;;;;;3.23;2.93;;;21.00;96.50;;;;;;5015390;28;20447;-78
2022/08/23 00:31:49;;;;;;;7.57;3.47;;;20.90;96.30;;;;;;5015187;28;20452;-78
2022/08/23 00:34:16;;;;;;;3.77;3.17;;;20.90;96.40;;;;;;5015050;28;20789;-78
2022/08/23 00:36:44;;;;;;;4.27;3.17;;;20.90;96.50;;;;;;5014503;28;20512;-78
2022/08/23 00:39:11;;;;;;;3.80;3.50;;;20.90;96.80;;;;;;5014854;28;20434;-77
2022/08/23 00:41:40;;;;;;;7.33;4.07;;;20.80;97.30;;;;;;5014486;28;20521;-78
2022/08/23 00:49:49;;;;;;;7.13;4.57;;;20.70;97.70;;;;;;5014722;28;20430;-78
2022/08/23 00:52:23;;;;;;;5.50;3.67;;;20.60;97.70;;;;;;5014280;28;20894;-78
2022/08/23 00:54:52;;;;;;;6.97;3.45;;;20.60;98.10;;;;;;5014199;28;20432;-77
2022/08/23 00:57:21;;;;;;;7.43;3.03;;;20.50;98.40;;;;;;5014476;28;20285;-78
2022/08/23 00:59:48;;;;;;;8.33;3.40;;;20.50;98.10;;;;;;5014598;28;20877;-77
2022/08/23 01:02:15;;;;;;;6.77;3.30;;;20.40;98.30;;;;;;5013092;28;21056;-77
2022/08/23 01:04:48;;;;;;;8.40;2.60;;;20.40;98.50;;;;;;5014067;28;20455;-78
2022/08/23 01:07:24;;;;;;;3.97;2.93;;;20.30;98.30;;;;;;5014133;28;20450;-77
2022/08/23 01:09:56;;;;;;;6.00;3.03;;;20.30;98.20;;;;;;5014314;28;20451;-77
2022/08/23 01:12:30;;;;;;;7.15;3.53;;;20.20;98.60;;;;;;5014135;28;20561;-77
2022/08/23 01:15:01;;;;;;;6.53;3.13;;;20.10;99.00;;;;;;5014022;28;20212;-77
2022/08/23 01:17:35;;;;;;;4.40;2.80;;;20.10;99.50;;;;;;5013784;28;20490;-77
2022/08/23 01:20:06;;;;;;;5.50;3.10;;;20.00;99.60;;;;;;5013973;28;20455;-78
2022/08/23 01:22:40;;;;;;;3.63;3.23;;;19.90;99.70;;;;;;5014003;28;20448;-77
2022/08/23 01:25:11;;;;;;;4.80;2.97;;;19.90;99.80;;;;;;5013781;28;20818;-78
2022/08/23 01:27:39;;;;;;;3.30;3.00;;;19.90;99.90;;;;;;5013864;28;20215;-78
2022/08/23 01:30:08;;;;;;;6.30;3.20;;;19.80;99.90;;;;;;5013766;28;20291;-77
2022/08/23 01:32:40;;;;;;;8.87;3.60;;;19.70;99.90;;;;;;5013737;28;20470;-78
2022/08/23 01:35:08;;;;;;;3.87;2.97;;;19.70;99.90;;;;;;5013779;28;20862;-77
2022/08/23 01:37:35;;;;;;;5.93;3.30;;;19.60;99.90;;;;;;5013508;28;20980;-78
2022/08/23 01:40:01;;;;;;;5.10;3.67;;;19.50;99.90;;;;;;5013597;28;20508;-78
2022/08/23 01:42:29;;;;;;;4.27;3.20;;;19.50;99.90;;;;;;5013735;28;20444;-77
2022/08/23 01:44:57;;;;;;;3.70;3.07;;;19.40;99.90;;;;;;5013469;28;20433;-77
2022/08/23 01:47:24;;;;;;;4.57;3.20;;;19.40;99.90;;;;;;5013521;28;20459;-77
2022/08/23 01:49:51;;;;;;;5.37;3.73;;;19.30;99.90;;;;;;5013540;28;20438;-78
2022/08/23 01:52:18;;;;;;;11.57;3.83;;;19.30;99.90;;;;;;5013326;28;20445;-77
2022/08/23 01:54:45;;;;;;;3.73;3.43;;;19.20;99.90;;;;;;5013196;28;20433;-77
2022/08/23 01:57:12;;;;;;;5.07;3.40;;;19.20;99.90;;;;;;5012903;28;20490;-77
2022/08/23 01:59:40;;;;;;;5.17;3.73;;;19.20;99.90;;;;;;5013506;28;20426;-77
2022/08/23 02:02:06;;;;;;;9.47;3.30;;;19.10;99.90;;;;;;5013451;28;20496;-77
2022/08/23 02:04:33;;;;;;;4.13;3.53;;;19.10;99.90;;;;;;5013209;28;20482;-77
2022/08/23 02:06:59;;;;;;;4.20;3.50;;;19.00;99.90;;;;;;5012881;28;20447;-77
2022/08/23 02:09:26;;;;;;;11.90;3.13;;;19.00;99.90;;;;;;5012823;28;20429;-77
2022/08/23 02:11:53;;;;;;;5.17;3.00;;;19.00;99.90;;;;;;5012783;28;20890;-77
2022/08/23 02:14:21;;;;;;;4.55;3.15;;;18.90;99.90;;;;;;5013025;28;20451;-77
2022/08/23 02:16:51;;;;;;;3.83;3.03;;;18.90;99.90;;;;;;5012811;28;20220;-78
2022/08/23 02:19:18;;;;;;;5.20;4.20;;;18.80;99.90;;;;;;5012937;28;20429;-77
2022/08/23 02:21:45;;;;;;;7.63;3.40;;;18.80;99.90;;;;;;5012685;28;20894;-77
2022/08/23 02:24:14;;;;;;;8.33;3.17;;;18.70;99.90;;;;;;5012653;28;20468;-78
2022/08/23 02:26:42;;;;;;;7.27;3.23;;;18.70;99.90;;;;;;5012663;28;20420;-77
2022/08/23 02:29:09;;;;;;;5.50;3.58;;;18.70;99.90;;;;;;5012934;28;20451;-77
2022/08/23 02:31:36;;;;;;;6.37;3.60;;;18.70;99.90;;;;;;5012645;28;20270;-77
2022/08/23 02:34:04;;;;;;;8.23;3.20;;;18.60;99.90;;;;;;5012686;28;20892;-77
2022/08/23 02:36:33;;;;;;;6.93;3.37;;;18.60;99.90;;;;;;5012199;28;20475;-77
2022/08/23 02:39:00;;;;;;;7.80;3.40;;;18.50;99.90;;;;;;5013170;28;20433;-77
2022/08/23 02:41:26;;;;;;;8.20;3.10;;;18.50;99.90;;;;;;5012755;28;20449;-77
2022/08/23 02:43:54;;;;;;;5.43;3.40;;;18.50;99.90;;;;;;5012600;28;20476;-77
2022/08/23 02:46:22;;;;;;;5.82;3.15;;;18.50;99.90;;;;;;5012509;28;20479;-78
2022/08/23 02:48:49;;;;;;;3.80;2.90;;;18.40;99.90;;;;;;5012706;28;20258;-77
2022/08/23 02:51:18;;;;;;;6.40;4.13;;;18.40;99.90;;;;;;5012246;28;20441;-77
2022/08/23 02:53:45;;;;;;;8.43;3.65;;;18.40;99.90;;;;;;5012740;28;20486;-77
2022/08/23 02:56:14;;;;;;;4.70;3.87;;;18.30;99.90;;;;;;5012465;28;20207;-77
2022/08/23 02:58:44;;;;;;;7.53;3.70;;;18.30;99.90;;;;;;5012598;28;20491;-77
2022/08/23 03:01:15;;;;;;;5.07;3.17;;;18.30;99.90;;;;;;5012629;28;20502;-77
2022/08/23 03:03:42;;;;;;;4.33;3.20;;;18.30;99.90;;;;;;5012085;28;20452;-78
2022/08/23 03:06:08;;;;;;;3.57;3.20;;;18.30;99.90;;;;;;5012381;28;20437;-78
2022/08/23 03:08:36;;;;;;;5.63;3.73;;;18.20;99.90;;;;;;5012365;28;20941;-78
2022/08/23 03:11:10;;;;;;;5.85;3.50;;;18.20;99.90;;;;;;5012934;28;20454;-77
2022/08/23 03:13:37;;;;;;;7.37;3.40;;;18.20;99.90;;;;;;5012581;28;20299;-78
2022/08/23 03:16:04;;;;;;;13.13;3.60;;;18.20;99.90;;;;;;5011943;28;20438;-78
2022/08/23 03:18:31;;;;;;;7.93;3.90;;;18.10;99.90;;;;;;5012783;28;20464;-77
2022/08/23 03:20:58;;;;;;;4.40;3.20;;;18.10;99.90;;;;;;5012537;28;20738;-77
2022/08/23 03:23:25;;;;;;;7.53;3.90;;;18.10;99.90;;;;;;5011863;28;20450;-78
2022/08/23 03:25:53;;;;;;;7.13;3.15;;;18.10;99.90;;;;;;5011900;28;20458;-77
2022/08/23 03:28:20;;;;;;;4.53;3.33;;;18.00;99.90;;;;;;5012368;28;20327;-77
2022/08/23 03:30:46;;;;;;;7.27;3.67;;;18.00;99.90;;;;;;5012474;28;20433;-77
2022/08/23 03:33:13;;;;;;;5.57;3.70;;;18.00;99.90;;;;;;5012336;28;20474;-77
2022/08/23 03:35:40;;;;;;;4.73;3.70;;;18.00;99.90;;;;;;5012099;28;20496;-77
2022/08/23 03:38:07;;;;;;;7.40;3.70;;;17.90;99.90;;;;;;5012186;28;20482;-77
2022/08/23 03:40:34;;;;;;;6.83;3.90;;;17.90;99.90;;;;;;5012104;28;20849;-77
2022/08/23 03:43:03;;;;;;;4.70;3.30;;;17.80;99.90;;;;;;5012445;28;20865;-77
2022/08/23 03:45:30;;;;;;;4.30;3.47;;;17.80;99.90;;;;;;5011820;28;20918;-77
2022/08/23 03:47:57;;;;;;;9.02;3.83;;;17.80;99.90;;;;;;5013861;28;20447;-77
2022/08/23 03:50:24;;;;;;;13.17;3.50;;;17.80;99.90;;;;;;5011732;28;20216;-77
2022/08/23 03:52:51;;;;;;;6.25;4.22;;;17.70;99.90;;;;;;5011771;28;20887;-77
2022/08/23 03:55:17;;;;;;;3.90;3.53;;;17.70;99.90;;;;;;5011526;28;20254;-77
2022/08/23 03:57:44;;;;;;;4.23;3.83;;;17.70;99.90;;;;;;5011613;28;20468;-77
2022/08/23 04:00:14;;;;;;;5.80;4.07;;;17.60;99.90;;;;;;5011873;28;20425;-77
2022/08/23 04:02:41;;;;;;;6.23;3.90;;;17.60;99.90;;;;;;5011666;28;20496;-77
2022/08/23 04:05:09;;;;;;;10.10;4.17;;;17.60;99.90;;;;;;5011518;28;20478;-77
2022/08/23 04:07:36;;;;;;;12.40;4.20;;;17.50;99.90;;;;;;5011628;28;20454;-77
2022/08/23 04:10:03;;;;;;;4.27;3.87;;;17.50;99.90;;;;;;5011767;28;20947;-78
2022/08/23 04:12:30;;;;;;;6.63;4.00;;;17.50;99.90;;;;;;5011312;28;20445;-77
2022/08/23 04:14:56;;;;;;;5.53;3.57;;;17.40;99.90;;;;;;5011391;28;20479;-77
2022/08/23 04:17:24;;;;;;;9.33;4.57;;;17.40;99.90;;;;;;5011553;28;20465;-77
2022/08/23 04:19:51;;;;;;;5.90;3.40;;;17.40;99.90;;;;;;5011240;28;20505;-77
2022/08/23 04:22:19;;;;;;;4.40;3.70;;;17.40;99.90;;;;;;5011561;28;20541;-77
2022/08/23 04:24:46;;;;;;;7.77;3.93;;;17.40;99.90;;;;;;5011670;28;20857;-77
2022/08/23 04:27:13;;;;;;;4.63;3.95;;;17.30;99.90;;;;;;5011759;28;20458;-77
2022/08/23 04:29:40;;;;;;;5.40;3.93;;;17.30;99.90;;;;;;5011405;28;20195;-77
2022/08/23 04:32:08;;;;;;;4.33;4.00;;;17.30;99.90;;;;;;5011301;28;20487;-77
2022/08/23 04:34:38;;;;;;;8.50;4.10;;;17.30;99.90;;;;;;5011330;28;20455;-77
2022/08/23 04:37:05;;;;;;;8.47;3.90;;;17.20;99.90;;;;;;5014585;28;20429;-77
2022/08/23 04:42:16;;;;;;;6.27;4.10;;;17.20;99.90;;;;;;5014551;28;20500;-77
2022/08/23 04:42:18;;;;;;;7.43;4.40;;;17.20;99.90;;;;;;5014669;28;20428;-76
2022/08/23 04:44:44;;;;;;;7.97;4.07;;;17.10;99.90;;;;;;5014613;28;20435;-77
2022/08/23 04:47:11;;;;;;;8.00;4.20;;;17.10;99.90;;;;;;5014516;28;20205;-77
2022/08/23 04:49:39;;;;;;;4.90;3.43;;;17.10;99.90;;;;;;5014636;28;20844;-77
2022/08/23 04:52:06;;;;;;;7.15;4.40;;;17.10;99.90;;;;;;5014168;28;20481;-77
2022/08/23 04:54:33;;;;;;;4.23;3.73;;;17.10;99.90;;;;;;5014530;28;20243;-77
2022/08/23 04:56:59;;;;;;;9.10;4.40;;;17.10;99.90;;;;;;5014400;28;20429;-77
2022/08/23 04:59:26;;;;;;;7.17;3.87;;;17.10;99.90;;;;;;5014367;28;20473;-77
2022/08/23 05:01:53;;;;;;;8.00;4.20;;;17.10;99.90;;;;;;5014393;28;20442;-77
2022/08/23 05:04:19;;;;;;;7.85;3.95;;;17.10;99.90;;;;;;5014110;28;20462;-77
2022/08/23 05:06:47;;;;;;;5.47;4.20;;;17.10;99.90;;;;;;5014056;28;20212;-77
2022/08/23 05:09:14;;;;;;;5.80;4.23;;;17.10;99.90;;;;;;5014135;28;20426;-77
2022/08/23 05:11:41;;;;;;;4.85;4.35;;;17.20;99.90;;;;;;5014171;28;20448;-77
2022/08/23 05:14:07;;;;;;;6.40;4.10;;;17.20;99.90;;;;;;5014160;28;20281;-77
2022/08/23 05:16:34;;;;;;;4.73;4.33;;;17.20;99.90;;;;;;5013761;28;20951;-77
2022/08/23 05:19:01;;;;;;;10.43;5.10;;;17.20;99.90;;;;;;5013670;28;20486;-77
2022/08/23 05:21:27;;;;;;;6.90;4.45;;;17.20;99.90;;;;;;5014258;28;20445;-77
2022/08/23 05:23:55;;;;;;;5.63;4.63;;;17.20;99.90;;;;;;5014004;28;20219;-77
2022/08/23 05:26:22;;;;;;;7.70;4.70;;;17.20;99.90;;;;;;5013583;28;20680;-77
2022/08/23 05:28:49;;;;;;;9.13;4.32;;;17.20;99.90;;;;;;5014001;28;20454;-77
2022/08/23 05:31:19;;;;;;;5.40;4.37;;;17.30;99.90;;;;;;5013837;28;20474;-77
2022/08/23 05:33:46;;;;;;;4.67;3.90;;;17.50;99.90;;;;;;5013527;28;20509;-78
2022/08/23 05:36:15;;;;;;;11.63;5.40;;;17.80;99.90;;;;;;5013710;28;20479;-77
2022/08/23 05:38:43;;;;;;;10.63;5.10;;;18.10;99.90;;;;;;5013611;28;20486;-77
2022/08/23 05:41:11;;;;;;;7.83;4.77;;;18.40;99.90;;;;;;5013635;28;20484;-77
2022/08/23 05:43:38;;;;;;;11.65;4.60;;;18.60;99.90;;;;;;5013514;28;20980;-78
2022/08/23 05:46:08;;;;;;;7.90;4.47;;;18.70;99.90;;;;;;5013093;28;20219;-78
2022/08/23 05:48:35;;;;;;;6.77;4.27;;;18.80;99.90;;;;;;5013035;28;20433;-77
2022/08/23 05:51:09;;;;;;;13.60;4.32;;;19.00;99.90;;;;;;5013448;28;20478;-77
2022/08/23 05:53:36;;;;;;;4.70;4.10;;;19.30;99.90;;;;;;5013514;28;20242;-78
2022/08/23 05:56:11;;;;;;;7.20;4.47;;;19.50;99.90;;;;;;5013416;28;20450;-77
2022/08/23 05:58:38;;;;;;;5.97;4.00;;;19.80;99.90;;;;;;5013329;28;20510;-78
2022/08/23 06:01:05;;;;;;;5.90;4.33;;;20.10;99.90;;;;;;5013509;28;20454;-78
2022/08/23 06:03:33;;;;;;;6.03;4.70;;;20.30;99.90;;;;;;5013494;28;20450;-78
2022/08/23 06:06:00;;;;;;;10.77;4.70;;;20.50;99.90;;;;;;5013008;28;20517;-78
2022/08/23 06:08:28;;;;;;;5.77;4.50;;;20.80;99.90;;;;;;5013159;28;20425;-78
2022/08/23 06:11:00;;;;;;;8.73;4.60;;;21.10;99.90;;;;;;5012928;28;20452;-78
2022/08/23 06:13:29;;;;;;;9.20;4.18;;;21.40;99.90;;;;;;5012816;28;20944;-78
2022/08/23 06:15:55;;;;;;;10.43;4.40;;;21.60;99.90;;;;;;5012933;28;20215;-78
2022/08/23 06:18:22;;;;;;;6.00;4.20;;;21.80;99.90;;;;;;5012967;28;20457;-78
2022/08/23 06:20:49;;;;;;;6.43;3.93;;;22.10;99.90;;;;;;5012748;28;20434;-77
2022/08/23 06:23:15;;;;;;;5.73;4.00;;;22.30;99.90;;;;;;5012743;28;20467;-77
2022/08/23 06:25:42;;;;;;;5.17;3.90;;;22.50;99.90;;;;;;5012215;28;20476;-77
2022/08/23 06:28:09;;;;;;;5.50;3.80;;;22.80;99.90;;;;;;5013080;28;20446;-77
2022/08/23 06:30:38;;;;;;;6.97;3.73;;;22.80;99.90;;;;;;5012969;28;20477;-78
2022/08/23 06:33:04;;;;;;;4.37;3.90;;;23.00;99.90;;;;;;5012862;28;20475;-78
2022/08/23 06:35:31;;;;;;;6.00;3.40;;;23.00;99.90;;;;;;5012642;28;20451;-77
2022/08/23 06:37:58;;;;;;;7.53;4.07;;;23.10;99.90;;;;;;5012505;28;21006;-78
2022/08/23 06:40:27;;;;;;;4.55;3.78;;;23.30;99.90;;;;;;5012343;28;20512;-78
2022/08/23 06:42:54;;;;;;;4.57;3.40;;;23.20;99.90;;;;;;5012733;28;20224;-78
2022/08/23 06:45:21;;;;;;;3.90;3.50;;;23.10;99.90;;;;;;5012442;28;20544;-78
2022/08/23 06:47:49;;;;;;;3.88;3.25;;;23.20;99.90;;;;;;5012539;28;20450;-78
2022/08/23 06:50:18;;;;;;;7.83;4.20;;;23.20;99.90;;;;;;5012289;28;20273;-78
2022/08/23 06:52:47;;;;;;;9.80;3.97;;;23.30;99.90;;;;;;5012178;28;20993;-78
2022/08/23 06:55:14;;;;;;;8.90;3.70;;;23.20;99.90;;;;;;5012175;28;20463;-78
2022/08/23 06:57:41;;;;;;;8.20;3.63;;;23.20;99.90;;;;;;5012435;28;20461;-78
2022/08/23 07:00:09;;;;;;;8.47;3.80;;;23.30;99.90;;;;;;5011390;28;20243;-78
2022/08/23 07:02:36;;;;;;;7.83;4.50;;;23.40;99.90;;;;;;5012323;28;20482;-78
2022/08/23 07:05:05;;;;;;;7.93;4.27;;;23.50;99.90;;;;;;5011970;28;20838;-78
2022/08/23 07:07:32;;;;;;;8.33;4.60;;;23.70;99.90;;;;;;5012135;28;20451;-78
2022/08/23 07:09:58;;;;;;;5.90;3.97;;;23.90;99.90;;;;;;5012127;28;20459;-78
2022/08/23 07:12:25;;;;;;;4.30;3.90;;;24.10;99.90;;;;;;5012197;28;20478;-78
2022/08/23 07:14:52;;;;;;;9.13;3.40;;;24.10;99.90;;;;;;5011948;28;20465;-78
2022/08/23 07:17:18;;;;;;;7.50;3.37;;;23.90;99.90;;;;;;5012036;28;20938;-78
2022/08/23 07:19:45;;;;;;;3.92;3.45;;;23.70;99.90;;;;;;5011941;28;20517;-79
2022/08/23 07:22:13;;;;;;;3.57;3.30;;;23.50;99.90;;;;;;5011825;28;20228;-78
2022/08/23 07:24:41;;;;;;;5.30;3.87;;;23.40;99.90;;;;;;5011966;28;20455;-78
2022/08/23 07:27:08;;;;;;;8.30;3.45;;;23.40;99.90;;;;;;5011881;28;20451;-78
2022/08/23 07:29:38;;;;;;;4.60;3.87;;;23.40;99.90;;;;;;5012003;28;20204;-79
2022/08/23 07:32:05;;;;;;;7.30;3.50;;;23.50;99.90;;;;;;5011824;28;20478;-78
2022/08/23 07:34:32;;;;;;;7.50;3.50;;;23.80;99.90;;;;;;5011784;28;20454;-79
2022/08/23 07:37:00;;;;;;;5.80;3.17;;;23.80;99.90;;;;;;5011889;28;20460;-79
2022/08/23 07:39:30;;;;;;;3.50;3.20;;;24.00;99.90;;;;;;5011928;28;20548;-79
2022/08/23 07:41:58;;;;;;;10.00;3.20;;;23.70;99.90;;;;;;5011793;28;20656;-79
2022/08/23 07:44:25;;;;;;;7.57;3.40;;;23.70;99.90;;;;;;5011744;28;21008;-79
2022/08/23 07:46:52;;;;;;;6.47;3.50;;;23.90;99.90;;;;;;5011391;28;20924;-79
2022/08/23 07:49:18;;;;;;;7.67;3.40;;;24.20;99.90;;;;;;5011523;28;20458;-79
2022/08/23 07:51:47;;;;;;;4.43;3.50;;;24.40;99.90;;;;;;5011598;28;20509;-79
2022/08/23 07:54:14;;;;;;;6.80;3.10;;;24.80;99.90;;;;;;5012013;28;20457;-78
2022/08/23 07:56:42;;;;;;;4.13;3.10;;;24.90;99.90;;;;;;5011390;28;20535;-79
2022/08/23 07:59:10;;;;;;;6.45;3.75;;;25.00;99.90;;;;;;5011845;28;20901;-79
2022/08/23 08:01:37;;;;;;;5.97;3.20;;;25.00;99.90;;;;;;5011211;28;20649;-79
2022/08/23 08:04:05;;;;;;;7.50;3.60;;;25.00;99.90;;;;;;5011655;28;20463;-79
2022/08/23 08:06:34;;;;;;;5.83;3.27;;;25.10;99.90;;;;;;5011402;28;20482;-79
2022/08/23 08:09:01;;;;;;;4.20;3.43;;;25.10;99.90;;;;;;5011807;28;20455;-79
2022/08/23 08:11:30;;;;;;;7.47;3.27;;;25.10;99.90;;;;;;5014337;28;20470;-78
2022/08/23 08:13:58;;;;;;;2.93;2.73;;;25.30;99.90;;;;;;5015526;28;20458;-78
2022/08/23 08:16:28;;;;;;;7.00;3.40;;;25.50;99.90;;;;;;5015340;28;20505;-78
2022/08/23 08:18:58;;;;;;;3.20;3.00;;;26.00;99.90;;;;;;5015547;28;20478;-79
2022/08/23 08:21:25;;;;;;;10.30;2.90;;;26.20;99.90;;;;;;5015202;28;20458;-80
2022/08/23 08:23:53;;;;;;;3.00;2.80;;;26.40;99.90;;;;;;5015708;28;20207;-79
2022/08/23 08:26:19;;;;;;;4.80;3.23;;;26.50;99.50;;;;;;5016143;28;20493;-77
2022/08/23 08:28:46;;;;;;;4.17;2.80;;;26.50;99.20;;;;;;5015395;28;20836;-77
2022/08/23 08:31:14;;;;;;;3.60;2.70;;;26.60;98.90;;;;;;5015017;28;20451;-77
2022/08/23 08:33:41;;;;;;;3.03;2.70;;;26.60;98.80;;;;;;5015106;28;20447;-77
2022/08/23 08:36:09;;;;;;;4.43;2.70;;;26.70;98.70;;;;;;5014648;28;20531;-78
2022/08/23 08:38:38;;;;;;;5.43;2.83;;;26.70;98.30;;;;;;5014879;28;20450;-78
2022/08/23 08:41:15;;;;;;;8.23;3.30;;;26.40;98.30;;;;;;5014478;28;20963;-78
2022/08/23 08:43:56;;;;;;;4.35;2.80;;;26.10;98.60;;;;;;5014670;28;20970;-78
2022/08/23 08:46:37;;;;;;;5.55;2.50;;;26.30;98.50;;;;;;5014440;28;20211;-78
2022/08/23 08:49:06;;;;;;;8.67;3.60;;;26.20;98.30;;;;;;5014680;28;20212;-78
2022/08/23 08:51:41;;;;;;;4.83;2.90;;;26.40;98.20;;;;;;5014226;28;20483;-78
2022/08/23 08:54:12;;;;;;;11.30;3.20;;;26.50;98.50;;;;;;5014878;28;20462;-78
2022/08/23 08:56:40;;;;;;;12.38;3.15;;;26.50;98.00;;;;;;5014067;28;20955;-78
2022/08/23 08:59:10;;;;;;;11.60;2.83;;;26.50;98.20;;;;;;5014401;28;20224;-77
2022/08/23 09:01:39;;;;;;;8.43;2.73;;;26.70;98.60;;;;;;5014211;28;20581;-78
2022/08/23 09:04:06;;;;;;;5.47;2.70;;;26.80;97.50;;;;;;5014207;28;20455;-78
2022/08/23 09:06:49;;;;;;;5.68;3.10;;;27.10;97.40;;;;;;5014448;28;20446;-79
2022/08/23 09:09:37;;;;;;;13.13;2.80;;;27.10;97.10;;;;;;5014577;28;20247;-78
2022/08/23 09:12:13;;;;;;;6.90;3.00;;;27.10;97.50;;;;;;5014046;28;21070;-78
2022/08/23 09:15:02;;;;;;;7.70;3.17;;;27.10;96.70;;;;;;5014002;28;20884;-78
2022/08/23 09:17:38;;;;;;;4.40;2.90;;;27.10;96.70;;;;;;5014343;28;20450;-78
2022/08/23 09:20:07;;;;;;;8.02;3.47;;;27.00;96.50;;;;;;5014182;28;20341;-78
2022/08/23 09:22:38;;;;;;;4.07;2.93;;;26.90;96.40;;;;;;5012820;28;20230;-78
2022/08/23 09:25:09;;;;;;;5.93;3.37;;;27.10;96.40;;;;;;5013576;28;20927;-78
2022/08/23 09:27:36;;;;;;;5.13;2.87;;;27.10;96.00;;;;;;5014098;28;20821;-78
2022/08/23 09:30:03;;;;;;;7.67;2.80;;;27.20;96.20;;;;;;5013956;28;20451;-78
2022/08/23 09:32:33;;;;;;;5.60;3.10;;;27.30;96.40;;;;;;5014115;28;20467;-78
2022/08/23 09:35:10;;;;;;;5.10;3.07;;;27.50;95.50;;;;;;5014049;28;20463;-79
2022/08/23 09:37:54;;;;;;;3.67;2.80;;;27.40;94.90;;;;;;5013987;28;20454;-78
2022/08/23 09:40:29;;;;;;;4.73;3.00;;;27.20;95.20;;;;;;5017956;28;20581;-80
2022/08/23 09:43:10;;;;;;;6.72;3.20;;;27.40;95.40;;;;;;5021064;28;20815;-80
2022/08/23 09:45:39;;;;;;;5.60;2.90;;;27.50;95.40;;;;;;5020046;28;20204;-80
2022/08/23 09:48:11;;;;;;;5.60;2.87;;;27.90;95.00;;;;;;5021607;28;20469;-80
2022/08/23 09:50:44;;;;;;;2.67;2.40;;;28.00;94.40;;;;;;5021577;28;20463;-80
2022/08/23 09:53:13;;;;;;;3.17;2.87;;;28.10;94.80;;;;;;5021423;28;20555;-81
2022/08/23 09:55:44;;;;;;;5.30;2.73;;;28.30;94.30;;;;;;5021098;28;20442;-80
2022/08/23 09:58:18;;;;;;;5.13;3.00;;;28.50;94.00;;;;;;5020154;28;20454;-80
2022/08/23 10:01:00;;;;;;;5.72;2.50;;;28.70;94.00;;;;;;5020220;28;20305;-80
2022/08/23 10:03:29;;;;;;;6.23;2.90;;;28.90;93.80;;;;;;5020442;28;20715;-81
2022/08/23 10:05:59;;;;;;;7.03;2.97;;;29.10;92.80;;;;;;5019383;28;20959;-80
2022/08/23 10:08:31;;;;;;;10.48;3.28;;;29.00;93.00;;;;;;5020307;28;20456;-81
2022/08/23 10:11:05;;;;;;;4.78;2.25;;;29.20;92.90;;;;;;5020521;28;20212;-80
2022/08/23 10:13:31;;;;;;;3.65;3.10;;;29.20;93.10;;;;;;5020313;28;20234;-80
2022/08/23 10:16:07;;;;;;;8.10;3.93;;;29.10;92.50;;;;;;5019840;28;20208;-80
2022/08/23 10:18:49;;;;;;;4.03;3.28;;;28.90;92.80;;;;;;5018734;28;20450;-80
2022/08/23 10:21:21;;;;;;;5.00;2.60;;;28.70;93.10;;;;;;5019132;28;20199;-80
2022/08/23 10:24:03;;;;;;;4.13;3.03;;;28.80;93.40;;;;;;5020301;28;20852;-80
2022/08/23 10:26:33;;;;;;;4.90;3.60;;;29.00;93.00;;;;;;5020988;28;20427;-80
2022/08/23 10:32:02;;;;;;;7.33;3.30;;;29.20;93.30;;;;;;5018829;28;20470;-79
2022/08/23 10:34:42;;;;;;;4.13;3.40;;;29.40;92.80;;;;;;5014289;28;20454;-79
2022/08/23 10:37:31;;;;;;;5.20;3.10;;;29.50;92.90;;;;;;5015322;28;20544;-79
2022/08/23 10:40:03;;;;;;;3.40;2.93;;;29.50;92.90;;;;;;5014321;28;20487;-79
2022/08/23 10:42:38;;;;;;;11.20;3.50;;;29.50;92.70;;;;;;5013645;28;20481;-79
2022/08/23 10:45:15;;;;;;;4.67;3.27;;;29.60;92.80;;;;;;5013387;28;20952;-79
2022/08/23 10:47:57;;;;;;;8.57;3.63;;;29.80;92.50;;;;;;5013827;28;20903;-80
2022/08/23 10:50:27;;;;;;;3.73;3.10;;;30.10;92.50;;;;;;5013263;28;20465;-79
2022/08/23 10:53:01;;;;;;;4.90;3.53;;;30.30;92.50;;;;;;5014710;28;20541;-80
2022/08/23 10:55:38;;;;;;;5.00;3.43;;;30.40;91.80;;;;;;5015630;28;20454;-79
2022/08/23 10:58:07;;;;;;;4.23;3.83;;;30.30;91.50;;;;;;5013173;28;20558;-79
2022/08/23 11:00:36;;;;;;;5.83;3.00;;;30.20;91.90;;;;;;5015052;28;20494;-79
2022/08/23 11:03:14;;;;;;;4.47;3.60;;;30.30;91.60;;;;;;5013966;28;20684;-79
2022/08/23 11:05:42;;;;;;;5.53;2.90;;;30.30;91.50;;;;;;5015183;28;20462;-79
2022/08/23 11:08:12;;;;;;;23.03;3.90;;;30.40;91.40;;;;;;5014446;28;20451;-79
2022/08/23 11:10:47;;;;;;;6.13;2.97;;;30.50;91.30;;;;;;5014424;28;20591;-79
2022/08/23 11:13:23;;;;;;;5.00;3.67;;;30.70;90.80;;;;;;5013448;28;20466;-79
2022/08/23 11:15:59;;;;;;;9.07;3.90;;;30.80;91.30;;;;;;5013629;28;20453;-79
2022/08/23 11:18:39;;;;;;;4.40;3.60;;;31.10;91.60;;;;;;5014503;28;20210;-79
2022/08/23 11:21:32;;;;;;;3.97;3.57;;;31.40;90.50;;;;;;5013663;28;20485;-79
2022/08/23 11:24:47;;;;;;;4.63;3.10;;;31.50;89.90;;;;;;5013091;28;20458;-79
2022/08/23 11:27:35;;;;;;;6.27;3.30;;;31.60;90.20;;;;;;5015200;28;20566;-79
2022/08/23 11:30:40;;;;;;;5.13;3.70;;;31.50;89.00;;;;;;5012969;28;20958;-79
2022/08/23 11:33:16;;;;;;;4.10;3.40;;;31.50;89.70;;;;;;5012703;28;20979;-79
2022/08/23 11:35:47;;;;;;;9.80;3.40;;;32.00;89.30;;;;;;5014373;28;20450;-79
2022/08/23 11:38:16;;;;;;;3.33;3.03;;;31.90;87.60;;;;;;5014602;28;20497;-80
2022/08/23 11:40:58;;;;;;;4.60;3.47;;;31.70;87.90;;;;;;5015605;28;20490;-79
2022/08/23 11:43:32;;;;;;;8.00;3.37;;;31.50;87.90;;;;;;5014718;28;20470;-79
2022/08/23 11:46:26;;;;;;;3.60;3.33;;;31.60;87.90;;;;;;5014274;28;20450;-79
2022/08/23 11:49:10;;;;;;;5.87;3.87;;;32.10;87.60;;;;;;5016630;28;20512;-79
2022/08/23 11:51:43;;;;;;;4.87;3.53;;;32.60;85.20;;;;;;5017353;28;20520;-80
2022/08/23 11:54:29;;;;;;;5.07;3.50;;;32.80;84.90;;;;;;5016514;28;21044;-79
2022/08/23 11:57:10;;;;;;;6.45;3.28;;;33.10;83.80;;;;;;5016753;28;20582;-79
2022/08/23 12:00:02;;;;;;;6.07;3.30;;;33.00;82.30;;;;;;5017090;28;20218;-79
2022/08/23 12:02:51;;;;;;;3.08;2.88;;;32.80;84.20;;;;;;5018846;28;20470;-79
2022/08/23 12:05:41;;;;;;;6.70;3.30;;;32.90;82.10;;;;;;5015436;28;20208;-79
2022/08/23 12:08:32;;;;;;;5.03;3.00;;;33.00;82.00;;;;;;5015592;28;20467;-79
2022/08/23 12:11:10;;;;;;;7.23;3.50;;;33.00;80.70;;;;;;5015472;28;21013;-78
2022/08/23 12:13:58;;;;;;;11.03;3.17;;;33.00;81.50;;;;;;5015373;28;20489;-79
2022/08/23 12:16:33;;;;;;;4.10;2.77;;;33.00;79.70;;;;;;5015086;28;20462;-79
2022/08/23 12:19:05;;;;;;;5.40;2.97;;;32.80;79.30;;;;;;5015368;28;20539;-79
2022/08/23 12:21:39;;;;;;;7.40;3.17;;;32.80;80.70;;;;;;5015103;28;20711;-78
2022/08/23 12:24:24;;;;;;;5.33;2.77;;;32.70;78.20;;;;;;5015112;28;20517;-79
2022/08/23 12:27:06;;;;;;;5.57;3.63;;;32.70;77.20;;;;;;5014922;28;20950;-79
2022/08/23 12:29:42;;;;;;;5.37;3.10;;;33.00;78.70;;;;;;5015267;28;20453;-79
2022/08/23 12:32:16;;;;;;;5.45;2.92;;;33.40;77.40;;;;;;5015075;28;20783;-79
2022/08/23 12:34:53;;;;;;;4.90;3.13;;;33.30;78.00;;;;;;5014764;28;20212;-79
2022/08/23 12:37:31;;;;;;;4.63;3.50;;;33.30;77.20;;;;;;5015053;28;20493;-78
2022/08/23 12:40:01;;;;;;;5.40;3.53;;;33.00;78.40;;;;;;5014854;28;20481;-79
2022/08/23 12:42:33;;;;;;;3.70;3.00;;;33.10;78.30;;;;;;5014934;28;20502;-79
2022/08/23 12:45:07;;;;;;;5.23;3.47;;;33.20;77.30;;;;;;5014560;28;20501;-78
2022/08/23 12:47:35;;;;;;;13.60;3.87;;;33.10;76.50;;;;;;5014963;28;20507;-79
2022/08/23 12:50:08;;;;;;;16.70;3.57;;;33.10;76.60;;;;;;5014514;28;20673;-78
2022/08/23 12:52:36;;;;;;;4.23;3.43;;;32.80;77.50;;;;;;5014620;28;20982;-78
2022/08/23 12:55:11;;;;;;;10.13;3.17;;;32.40;78.10;;;;;;5014336;28;20463;-78
2022/08/23 12:57:42;;;;;;;4.33;3.13;;;32.40;78.60;;;;;;5014639;28;20447;-78
2022/08/23 13:00:19;;;;;;;5.77;3.03;;;32.30;79.50;;;;;;5014466;28;20482;-78
2022/08/23 13:02:52;;;;;;;3.57;3.10;;;32.40;78.10;;;;;;5014550;28;20470;-78
2022/08/23 13:05:26;;;;;;;4.27;3.30;;;32.60;78.20;;;;;;5014171;28;20450;-78
2022/08/23 13:07:53;;;;;;;6.30;3.53;;;32.80;78.10;;;;;;5014328;28;20508;-78
2022/08/23 13:10:20;;;;;;;5.03;3.30;;;32.30;76.30;;;;;;5014479;28;20858;-78
2022/08/23 13:12:48;;;;;;;8.10;3.80;;;32.00;77.70;;;;;;5014463;28;20467;-78